Time;durP1;ratioP1;P1;durP2;ratioP2;P2;SDS_P1;SDS_P2;PMS_P1;PMS_P2;Temp;Humidity;BMP_temperature;BMP_pressure;BME280_temperature;BME280_humidity;BME280_pressure;Samples;Min_cycle;Max_cycle;Signal;HPM_P1;HPM_P2
2021/05/23 00:02:15;;;;;;;446.53;286.27;;;;;;;10.13;71.28;98330.31;5030395;28;20295;-61
2021/05/23 00:04:41;;;;;;;443.70;282.20;;;;;;;10.14;71.18;98330.28;5028145;28;20033;-62
2021/05/23 00:07:12;;;;;;;441.73;278.67;;;;;;;10.20;70.85;98334.44;5026904;28;20306;-62
2021/05/23 00:09:37;;;;;;;442.67;278.27;;;;;;;10.28;70.03;98333.41;5031886;28;20083;-62
2021/05/23 00:12:08;;;;;;;448.57;286.33;;;;;;;10.29;70.22;98332.53;5027141;28;20604;-63
2021/05/23 00:14:33;;;;;;;445.50;283.80;;;;;;;10.42;69.28;98331.38;5027566;28;20029;-62
2021/05/23 00:16:59;;;;;;;443.40;281.77;;;;;;;10.30;69.35;98320.56;5029135;28;20321;-63
2021/05/23 00:19:25;;;;;;;446.50;291.23;;;;;;;10.34;69.78;98332.44;5025092;28;20022;-61
2021/05/23 00:21:50;;;;;;;444.23;285.03;;;;;;;10.34;69.18;98329.84;5018461;28;20042;-61
2021/05/23 00:24:15;;;;;;;443.77;277.80;;;;;;;10.41;69.37;98331.41;5034007;28;20048;-62
2021/05/23 00:26:41;;;;;;;451.33;296.87;;;;;;;10.44;69.64;98326.19;5024820;28;20049;-61
2021/05/23 00:29:07;;;;;;;445.40;287.00;;;;;;;10.32;69.90;98327.31;5030598;28;20036;-61
2021/05/23 00:31:33;;;;;;;446.90;292.70;;;;;;;10.35;69.94;98329.84;5028770;28;20083;-61
2021/05/23 00:33:59;;;;;;;445.40;288.07;;;;;;;10.27;70.71;98323.19;5029940;28;20155;-61
2021/05/23 00:36:24;;;;;;;445.33;289.37;;;;;;;10.20;71.37;98325.03;5013130;28;20350;-61
2021/05/23 00:38:50;;;;;;;447.07;284.13;;;;;;;10.25;70.85;98335.19;5026696;28;20033;-61
2021/05/23 00:41:16;;;;;;;444.37;285.90;;;;;;;10.24;70.09;98330.94;5027992;28;20089;-61
2021/05/23 00:43:41;;;;;;;446.90;290.93;;;;;;;10.27;69.99;98330.88;5015747;28;20096;-61
2021/05/23 00:46:07;;;;;;;444.83;288.50;;;;;;;10.30;70.01;98329.09;5029684;28;20414;-61
2021/05/23 00:48:32;;;;;;;445.43;284.30;;;;;;;10.35;70.18;98331.56;5028434;28;20049;-61
2021/05/23 00:50:58;;;;;;;445.43;290.93;;;;;;;10.48;68.84;98330.41;5032255;28;20033;-61
2021/05/23 00:53:23;;;;;;;446.53;291.17;;;;;;;10.44;69.77;98324.47;5031341;28;20057;-61
2021/05/23 00:55:49;;;;;;;447.30;289.10;;;;;;;10.47;69.24;98329.56;5029927;28;20068;-61
2021/05/23 00:58:16;;;;;;;448.17;297.80;;;;;;;10.46;69.01;98327.00;5034514;28;20073;-61
2021/05/23 01:00:41;;;;;;;449.17;294.70;;;;;;;10.48;69.02;98320.97;5031638;28;20036;-63
2021/05/23 01:03:51;;;;;;;449.60;300.67;;;;;;;10.48;70.08;98320.16;5031310;28;20529;-62
2021/05/23 01:06:17;;;;;;;445.33;285.60;;;;;;;10.43;70.03;98320.25;5034831;28;20053;-62
2021/05/23 01:08:42;;;;;;;446.03;289.20;;;;;;;10.38;70.64;98316.09;5029918;28;20284;-61
2021/05/23 01:11:16;;;;;;;448.60;298.53;;;;;;;10.43;70.28;98322.81;5030179;28;20090;-63
2021/05/23 01:13:57;;;;;;;445.40;292.10;;;;;;;10.37;71.03;98312.69;5033699;28;20037;-61
2021/05/23 01:16:34;;;;;;;444.17;288.23;;;;;;;10.36;70.61;98310.16;5031169;28;20375;-62
2021/05/23 01:19:06;;;;;;;446.97;295.10;;;;;;;10.39;70.76;98320.34;5031079;28;21062;-63
2021/05/23 01:21:37;;;;;;;448.97;299.27;;;;;;;10.38;71.38;98321.22;5030975;28;20287;-62
2021/05/23 01:24:08;;;;;;;449.33;298.17;;;;;;;10.45;70.11;98318.47;5029670;28;20576;-62
2021/05/23 01:26:38;;;;;;;447.47;294.27;;;;;;;10.45;69.95;98315.91;5032442;28;20303;-63
2021/05/23 01:29:08;;;;;;;447.73;294.07;;;;;;;10.54;69.70;98319.97;5031717;28;20311;-62
2021/05/23 01:31:35;;;;;;;444.50;291.93;;;;;;;10.52;69.49;98321.75;5029728;28;20336;-62
2021/05/23 01:34:02;;;;;;;447.37;293.80;;;;;;;10.54;69.56;98325.94;5029868;28;20288;-62
2021/05/23 01:36:34;;;;;;;450.37;299.63;;;;;;;10.59;69.95;98327.56;5036194;28;20280;-62
2021/05/23 01:39:03;;;;;;;443.47;292.27;;;;;;;10.57;69.53;98319.06;5029934;28;20328;-63
2021/05/23 01:41:29;;;;;;;449.67;302.97;;;;;;;10.57;69.12;98319.91;5029945;28;20272;-61
2021/05/23 01:43:56;;;;;;;445.60;292.60;;;;;;;10.58;69.54;98320.75;5030014;28;20414;-61
2021/05/23 01:46:22;;;;;;;450.37;296.13;;;;;;;10.73;68.99;98321.25;5027769;28;20273;-61
2021/05/23 01:48:47;;;;;;;444.50;294.47;;;;;;;10.74;68.88;98312.63;5031954;28;20372;-61
2021/05/23 01:51:13;;;;;;;448.10;298.47;;;;;;;10.66;69.20;98317.13;5035507;28;20030;-61
2021/05/23 01:53:40;;;;;;;447.53;299.93;;;;;;;10.62;70.13;98318.06;5028234;28;20120;-61
2021/05/23 01:56:06;;;;;;;450.27;300.07;;;;;;;10.62;70.58;98312.94;5029684;28;20029;-61
2021/05/23 01:58:32;;;;;;;455.00;311.90;;;;;;;10.60;70.04;98313.88;5031416;28;20314;-61
2021/05/23 02:00:58;;;;;;;446.50;295.63;;;;;;;10.60;70.44;98306.19;5027771;28;20069;-61
2021/05/23 02:03:25;;;;;;;448.33;305.47;;;;;;;10.69;70.67;98314.50;5029351;28;20033;-61
2021/05/23 02:05:53;;;;;;;446.20;301.53;;;;;;;10.69;70.81;98317.06;5027946;28;20700;-61
2021/05/23 02:08:22;;;;;;;450.17;307.77;;;;;;;10.69;71.06;98308.53;5028454;28;20633;-61
2021/05/23 02:10:49;;;;;;;448.93;301.70;;;;;;;10.68;70.99;98315.38;5029444;28;20590;-62
2021/05/23 02:13:15;;;;;;;452.53;309.67;;;;;;;10.63;71.03;98312.06;5034518;28;20297;-62
2021/05/23 02:15:41;;;;;;;448.73;311.00;;;;;;;10.59;71.17;98312.19;5032132;28;20539;-62
2021/05/23 02:18:08;;;;;;;448.70;307.70;;;;;;;10.59;71.95;98313.03;5030056;28;20368;-62
2021/05/23 02:20:34;;;;;;;448.97;305.33;;;;;;;10.62;72.10;98314.66;5028892;28;20284;-62
2021/05/23 02:23:03;;;;;;;446.33;303.33;;;;;;;10.65;72.13;98318.00;5030215;28;20325;-62
2021/05/23 02:25:30;;;;;;;448.73;304.97;;;;;;;10.68;72.29;98320.50;5028977;28;20292;-61
2021/05/23 02:28:01;;;;;;;447.60;308.33;;;;;;;10.73;72.13;98320.38;5028062;28;20284;-61
2021/05/23 02:30:30;;;;;;;451.53;310.00;;;;;;;10.98;67.75;98332.56;5029544;28;20272;-61
2021/05/23 02:32:56;;;;;;;451.80;304.40;;;;;;;11.06;67.10;98327.22;5028087;28;20366;-61
2021/05/23 02:35:26;;;;;;;448.63;306.40;;;;;;;11.12;67.04;98333.94;5033625;28;20256;-61
2021/05/23 02:37:52;;;;;;;457.43;315.90;;;;;;;11.18;66.59;98332.03;5029457;28;20279;-61
2021/05/23 02:40:20;;;;;;;449.20;309.43;;;;;;;11.17;66.86;98329.50;5029170;28;20294;-61
2021/05/23 02:42:46;;;;;;;448.13;305.27;;;;;;;11.20;66.34;98325.13;5012926;28;20311;-62
2021/05/23 02:45:14;;;;;;;445.43;301.03;;;;;;;11.16;66.09;98320.97;5032980;28;20342;-62
2021/05/23 02:47:40;;;;;;;450.30;309.60;;;;;;;11.22;66.33;98328.50;5032018;28;20300;-62
2021/05/23 02:50:27;;;;;;;446.53;310.67;;;;;;;11.22;67.43;98318.25;5028705;28;20320;-63
2021/05/23 02:52:53;;;;;;;448.23;312.07;;;;;;;11.21;66.96;98318.28;5020308;28;20296;-61
2021/05/23 02:55:21;;;;;;;451.13;317.00;;;;;;;11.21;68.23;98325.97;5027090;28;20287;-62
2021/05/23 02:57:47;;;;;;;456.27;327.57;;;;;;;11.10;69.62;98313.44;5027248;28;20516;-61
2021/05/23 03:00:19;;;;;;;449.87;316.33;;;;;;;11.19;71.37;98332.88;5027735;28;20300;-61
2021/05/23 03:02:45;;;;;;;450.63;320.23;;;;;;;11.14;71.51;98343.25;5027862;28;20033;-63
2021/05/23 03:05:13;;;;;;;448.93;319.47;;;;;;;11.13;72.41;98335.59;5028422;28;20296;-61
2021/05/23 03:07:43;;;;;;;453.83;325.93;;;;;;;11.12;70.11;98337.31;5031739;28;20270;-61
2021/05/23 03:10:12;;;;;;;458.80;329.43;;;;;;;11.27;66.41;98341.22;5023540;28;20275;-61
2021/05/23 03:12:39;;;;;;;448.27;322.80;;;;;;;11.28;66.98;98336.06;5027230;28;20271;-62
2021/05/23 03:15:07;;;;;;;452.47;323.60;;;;;;;11.28;68.43;98336.06;5029649;28;20284;-62
2021/05/23 03:17:32;;;;;;;450.13;321.67;;;;;;;11.30;69.28;98346.25;5027687;28;20261;-62
2021/05/23 03:19:58;;;;;;;454.30;333.50;;;;;;;11.31;70.23;98355.66;5027399;28;20772;-62
2021/05/23 03:22:23;;;;;;;454.97;331.63;;;;;;;11.26;70.88;98363.47;5027682;28;20037;-62
2021/05/23 03:24:49;;;;;;;456.77;333.43;;;;;;;11.27;71.17;98364.31;5028389;28;20386;-62
2021/05/23 03:27:14;;;;;;;455.40;331.60;;;;;;;11.27;69.34;98359.19;5026625;28;20048;-61
2021/05/23 03:29:40;;;;;;;451.27;325.87;;;;;;;11.43;66.01;98358.75;5034446;28;20051;-61
2021/05/23 03:32:05;;;;;;;454.30;327.07;;;;;;;11.57;65.22;98353.25;5027598;28;20041;-61
2021/05/23 03:34:31;;;;;;;451.50;319.90;;;;;;;11.67;64.88;98361.53;5028335;28;20053;-62
2021/05/23 03:36:56;;;;;;;452.57;324.80;;;;;;;11.69;64.55;98360.59;5027735;28;20124;-63
2021/05/23 03:39:22;;;;;;;460.73;338.57;;;;;;;11.76;64.55;98364.69;5030204;28;20180;-61
2021/05/23 03:41:47;;;;;;;452.00;326.33;;;;;;;11.74;65.14;98371.63;5025315;28;20051;-62
2021/05/23 03:44:12;;;;;;;452.00;325.03;;;;;;;11.72;64.54;98370.81;5030335;28;20033;-61
2021/05/23 03:46:38;;;;;;;453.30;324.33;;;;;;;11.73;65.24;98380.19;5025488;28;20372;-61
2021/05/23 03:49:04;;;;;;;455.60;334.83;;;;;;;11.73;65.84;98376.78;5026526;28;20188;-61
2021/05/23 03:51:30;;;;;;;455.50;341.40;;;;;;;11.68;67.84;98392.28;5030620;28;20033;-63
2021/05/23 03:53:56;;;;;;;455.20;339.67;;;;;;;11.55;69.32;98390.94;5032228;28;20276;-62
2021/05/23 03:56:21;;;;;;;454.83;338.30;;;;;;;11.52;70.25;98395.31;5025699;28;20298;-63
2021/05/23 03:58:47;;;;;;;456.07;343.67;;;;;;;11.55;71.22;98414.03;5031628;28;20066;-62
2021/05/23 04:01:12;;;;;;;453.90;336.17;;;;;;;11.56;69.24;98418.28;5024561;28;20041;-62
2021/05/23 04:03:37;;;;;;;456.33;337.37;;;;;;;11.59;68.80;98409.66;5029486;28;20059;-62
2021/05/23 04:06:04;;;;;;;453.90;330.17;;;;;;;11.86;66.39;98420.09;5028746;28;20044;-62
2021/05/23 04:08:29;;;;;;;457.53;340.80;;;;;;;11.89;66.66;98419.13;5026358;28;20076;-62
2021/05/23 04:11:02;;;;;;;454.23;333.83;;;;;;;11.70;68.49;98423.91;5026603;28;20276;-62
2021/05/23 04:13:28;;;;;;;456.13;334.50;;;;;;;11.60;69.62;98435.31;5028136;28;20045;-62
2021/05/23 04:15:54;;;;;;;453.90;330.60;;;;;;;11.52;68.70;98431.25;5027550;28;20304;-63
2021/05/23 04:18:19;;;;;;;452.83;323.37;;;;;;;11.49;70.56;98426.22;5028152;28;20306;-63
2021/05/23 04:20:44;;;;;;;456.37;328.33;;;;;;;11.35;71.71;98434.25;5020121;28;20217;-62
2021/05/23 04:23:11;;;;;;;451.77;321.77;;;;;;;11.29;72.53;98434.41;5027426;28;20370;-62
2021/05/23 04:25:36;;;;;;;450.63;315.80;;;;;;;11.07;74.38;98433.25;5032671;28;20296;-62
2021/05/23 04:28:02;;;;;;;451.97;316.60;;;;;;;11.02;75.30;98441.06;5029506;28;20040;-62
2021/05/23 04:30:28;;;;;;;449.43;315.13;;;;;;;10.92;76.60;98454.97;5029589;28;20112;-62
2021/05/23 04:32:55;;;;;;;454.63;317.07;;;;;;;10.88;76.82;98449.06;5029191;28;20097;-62
2021/05/23 04:35:21;;;;;;;450.67;315.30;;;;;;;10.78;78.47;98445.03;5030480;28;20281;-62
2021/05/23 04:37:46;;;;;;;450.60;314.27;;;;;;;10.84;78.93;98447.47;5030151;28;20330;-62
2021/05/23 04:40:14;;;;;;;451.47;314.07;;;;;;;10.76;78.87;98443.38;5029557;28;20044;-62
2021/05/23 04:42:40;;;;;;;459.23;324.03;;;;;;;10.83;79.54;98450.91;5028957;28;20279;-62
2021/05/23 04:45:07;;;;;;;449.27;308.03;;;;;;;10.86;79.91;98458.50;5029535;28;20303;-62
2021/05/23 04:47:35;;;;;;;452.80;313.53;;;;;;;10.96;80.07;98454.88;5029686;28;20053;-61
2021/05/23 04:50:00;;;;;;;457.00;322.43;;;;;;;11.06;80.44;98446.97;5033297;28;20283;-62
2021/05/23 04:52:26;;;;;;;451.77;315.47;;;;;;;11.12;80.07;98462.22;5033626;28;20302;-62
2021/05/23 04:54:51;;;;;;;459.43;333.07;;;;;;;11.10;79.64;98461.41;5018525;28;20062;-63
2021/05/23 04:57:17;;;;;;;454.73;323.80;;;;;;;11.17;78.51;98457.78;5029700;28;20412;-62
2021/05/23 04:59:42;;;;;;;455.67;321.73;;;;;;;11.12;78.53;98459.66;5028585;28;20060;-62
2021/05/23 05:02:08;;;;;;;448.80;317.07;;;;;;;11.11;80.48;98457.97;5032479;28;20033;-62
2021/05/23 05:04:33;;;;;;;452.17;319.80;;;;;;;11.09;80.60;98463.13;5030384;28;20043;-62
2021/05/23 05:06:59;;;;;;;453.37;321.03;;;;;;;11.08;80.71;98447.75;5029543;28;20033;-62
2021/05/23 05:09:25;;;;;;;456.73;322.13;;;;;;;11.18;80.62;98454.34;5027412;28;20108;-60
2021/05/23 05:11:51;;;;;;;453.63;326.70;;;;;;;11.30;79.23;98448.91;5032948;28;20044;-61
2021/05/23 05:14:16;;;;;;;450.97;319.23;;;;;;;11.41;79.16;98459.78;5030591;28;20329;-61
2021/05/23 05:16:42;;;;;;;458.27;321.90;;;;;;;11.49;78.38;98457.84;5027906;28;20029;-60
2021/05/23 05:19:08;;;;;;;452.43;322.83;;;;;;;11.59;78.81;98445.59;5029640;28;20032;-61
2021/05/23 05:21:34;;;;;;;456.77;331.57;;;;;;;11.70;79.39;98448.75;5030269;28;20136;-63
2021/05/23 05:24:00;;;;;;;456.00;329.00;;;;;;;11.64;79.33;98426.63;5028273;28;20375;-61
2021/05/23 05:26:25;;;;;;;457.77;333.10;;;;;;;11.75;78.70;98436.69;5032172;28;20839;-62
2021/05/23 05:28:51;;;;;;;452.97;333.07;;;;;;;11.83;78.81;98451.00;5027702;28;20029;-62
2021/05/23 05:31:16;;;;;;;456.80;339.13;;;;;;;11.86;78.40;98450.91;5032105;28;20029;-63
2021/05/23 05:33:42;;;;;;;458.67;340.63;;;;;;;11.89;77.89;98448.25;5032850;28;20036;-62
2021/05/23 05:36:07;;;;;;;456.67;339.30;;;;;;;11.99;77.56;98442.84;5028468;28;20399;-62
2021/05/23 05:38:33;;;;;;;457.90;347.73;;;;;;;11.96;77.98;98448.09;5028452;28;20051;-62
2021/05/23 05:40:58;;;;;;;456.00;341.63;;;;;;;12.00;76.73;98444.56;5030112;28;20157;-62
2021/05/23 05:43:24;;;;;;;459.37;351.20;;;;;;;12.10;76.47;98444.25;5030423;28;20307;-62
2021/05/23 05:45:50;;;;;;;456.70;342.53;;;;;;;12.17;76.91;98450.91;5026976;28;20370;-63
2021/05/23 05:48:16;;;;;;;457.50;349.43;;;;;;;12.26;76.08;98444.66;5035997;28;20104;-63
2021/05/23 05:50:42;;;;;;;463.67;355.27;;;;;;;12.21;75.55;98443.94;5029579;28;20473;-62
2021/05/23 05:53:07;;;;;;;458.17;348.13;;;;;;;12.39;75.09;98432.31;5020444;28;20284;-63
2021/05/23 05:55:33;;;;;;;459.57;352.47;;;;;;;12.53;74.43;98438.69;5032852;28;20071;-63
2021/05/23 05:57:58;;;;;;;462.73;359.90;;;;;;;12.55;74.99;98436.94;5029324;28;20116;-62
2021/05/23 06:00:23;;;;;;;461.17;361.33;;;;;;;12.63;73.55;98434.97;5030949;28;20034;-62
2021/05/23 06:02:49;;;;;;;469.57;374.23;;;;;;;12.51;74.49;98435.34;5031585;28;20071;-62
2021/05/23 06:05:14;;;;;;;463.47;366.30;;;;;;;12.57;74.49;98431.72;5033507;28;20030;-62
2021/05/23 06:07:40;;;;;;;464.73;370.07;;;;;;;12.60;74.08;98440.19;5013996;28;20440;-62
2021/05/23 06:10:06;;;;;;;462.73;372.70;;;;;;;12.67;73.39;98440.88;5030070;28;20052;-62
2021/05/23 06:12:31;;;;;;;482.57;402.03;;;;;;;12.59;73.17;98441.09;5025142;28;20056;-60
2021/05/23 06:14:56;;;;;;;462.00;368.73;;;;;;;12.56;73.88;98441.16;5021169;28;20061;-62
2021/05/23 06:17:22;;;;;;;460.93;366.20;;;;;;;12.48;73.87;98437.13;5030142;28;20018;-62
2021/05/23 06:19:47;;;;;;;463.60;381.27;;;;;;;12.49;73.42;98437.09;5029614;28;20116;-62
2021/05/23 06:22:14;;;;;;;458.17;358.93;;;;;;;12.44;73.60;98438.97;5018077;28;20025;-63
2021/05/23 06:24:39;;;;;;;461.67;365.80;;;;;;;12.43;74.32;98439.88;5032066;28;20327;-62
2021/05/23 06:27:05;;;;;;;460.40;362.17;;;;;;;12.50;73.83;98436.22;5030505;28;20278;-62
2021/05/23 06:29:31;;;;;;;458.50;360.47;;;;;;;12.46;73.74;98437.22;5032418;28;20081;-63
2021/05/23 06:31:56;;;;;;;461.00;360.20;;;;;;;12.55;73.48;98444.66;5032528;28;20406;-63
2021/05/23 06:34:22;;;;;;;461.70;370.47;;;;;;;12.56;73.46;98443.75;5028537;28;20025;-62
2021/05/23 06:36:48;;;;;;;471.40;390.07;;;;;;;12.62;72.60;98446.13;5027916;28;20029;-62
2021/05/23 06:39:14;;;;;;;465.83;378.53;;;;;;;12.72;72.80;98445.00;5029083;28;20017;-62
2021/05/23 06:41:39;;;;;;;463.97;376.03;;;;;;;12.63;72.42;98445.25;5031363;28;20041;-62
2021/05/23 06:44:05;;;;;;;463.70;375.63;;;;;;;12.74;72.56;98444.91;5031200;28;20025;-62
2021/05/23 06:46:30;;;;;;;468.40;388.37;;;;;;;12.66;73.25;98452.03;5028465;28;20116;-62
2021/05/23 06:48:56;;;;;;;464.37;386.67;;;;;;;12.71;72.78;98450.16;5027151;28;20088;-62
2021/05/23 06:51:21;;;;;;;465.20;383.97;;;;;;;12.85;74.39;98460.03;5027175;28;20035;-62
2021/05/23 06:53:49;;;;;;;469.77;392.93;;;;;;;12.91;74.81;98457.25;5028662;28;20048;-62
2021/05/23 06:56:15;;;;;;;467.83;398.33;;;;;;;12.97;73.76;98455.34;5028464;28;20465;-62
2021/05/23 06:58:44;;;;;;;468.50;399.53;;;;;;;13.00;73.27;98467.28;5027141;28;20688;-62
2021/05/23 07:01:10;;;;;;;468.50;399.40;;;;;;;13.06;74.12;98462.78;5028047;28;20037;-62
2021/05/23 07:03:36;;;;;;;468.50;398.93;;;;;;;13.06;74.87;98473.09;5028820;28;20261;-61
2021/05/23 07:06:02;;;;;;;470.17;412.37;;;;;;;13.06;74.28;98469.66;5029870;28;20280;-62
2021/05/23 07:08:28;;;;;;;473.97;414.07;;;;;;;12.83;73.62;98455.78;5026918;28;20527;-62
2021/05/23 07:10:53;;;;;;;470.30;416.80;;;;;;;12.60;76.35;98457.38;5029846;28;20825;-62
2021/05/23 07:13:19;;;;;;;468.27;398.07;;;;;;;12.47;77.17;98451.75;5029746;28;20029;-62
2021/05/23 07:15:45;;;;;;;467.87;387.60;;;;;;;12.44;78.77;98445.84;5029307;28;20071;-62
2021/05/23 07:18:10;;;;;;;472.53;416.63;;;;;;;12.51;78.78;98445.63;5028838;28;20260;-62
2021/05/23 07:20:36;;;;;;;471.03;397.60;;;;;;;12.52;79.13;98447.28;5020803;28;20390;-62
2021/05/23 07:23:01;;;;;;;465.97;390.43;;;;;;;12.42;78.92;98447.63;5028191;28;20342;-62
2021/05/23 07:25:27;;;;;;;466.57;385.83;;;;;;;12.27;80.60;98457.44;5016355;28;20068;-62
2021/05/23 07:27:52;;;;;;;463.70;383.23;;;;;;;12.13;81.90;98451.03;5029278;28;20114;-62
2021/05/23 07:30:18;;;;;;;465.50;383.80;;;;;;;12.04;81.23;98459.00;5028329;28;20275;-60
2021/05/23 07:32:44;;;;;;;463.73;374.27;;;;;;;12.11;81.60;98458.78;5027758;28;20113;-63
2021/05/23 07:35:10;;;;;;;461.77;363.57;;;;;;;11.93;81.34;98455.84;5028619;28;20699;-62
2021/05/23 07:37:36;;;;;;;460.37;359.57;;;;;;;12.05;82.79;98465.81;5028081;28;20025;-61
2021/05/23 07:40:03;;;;;;;461.97;358.77;;;;;;;12.05;83.55;98478.69;5032226;28;20301;-61
2021/05/23 07:42:28;;;;;;;466.43;373.83;;;;;;;12.16;83.06;98474.06;5026963;28;20029;-61
2021/05/23 07:44:53;;;;;;;457.07;343.30;;;;;;;12.24;81.33;98475.53;5010381;28;20589;-61
2021/05/23 07:47:19;;;;;;;456.70;347.23;;;;;;;12.27;81.41;98475.44;5025846;28;20096;-62
2021/05/23 07:49:44;;;;;;;459.67;352.20;;;;;;;12.24;80.83;98477.25;5028968;28;20025;-61
2021/05/23 07:52:11;;;;;;;462.40;355.90;;;;;;;12.24;79.21;98485.81;5028904;28;20022;-62
2021/05/23 07:54:38;;;;;;;458.57;352.27;;;;;;;12.27;79.90;98484.88;5030035;28;20018;-62
2021/05/23 07:57:05;;;;;;;458.87;351.13;;;;;;;12.33;80.86;98484.72;5033655;28;20280;-61
2021/05/23 07:59:31;;;;;;;459.03;353.20;;;;;;;12.13;80.44;98485.28;5031227;28;20368;-61
2021/05/23 08:01:56;;;;;;;463.23;344.43;;;;;;;12.12;81.46;98488.75;5033322;28;20667;-60
2021/05/23 08:04:22;;;;;;;457.03;337.80;;;;;;;12.12;82.04;98499.03;5020118;28;20107;-62
2021/05/23 08:06:47;;;;;;;461.20;352.90;;;;;;;11.90;82.51;98487.63;5035437;28;20048;-61
2021/05/23 08:09:13;;;;;;;460.47;350.77;;;;;;;11.93;83.40;98499.53;5030595;28;20021;-61
2021/05/23 08:11:40;;;;;;;457.87;344.57;;;;;;;11.80;83.11;98505.00;5034753;28;20363;-61
2021/05/23 08:14:05;;;;;;;458.43;346.10;;;;;;;11.72;84.13;98501.78;5031294;28;20037;-61
2021/05/23 08:16:31;;;;;;;459.60;342.27;;;;;;;11.65;84.00;98509.66;5031511;28;20264;-61
2021/05/23 08:18:56;;;;;;;460.67;343.73;;;;;;;11.64;84.53;98513.09;5033285;28;20042;-61
2021/05/23 08:21:21;;;;;;;456.00;337.10;;;;;;;11.53;84.73;98515.94;5034649;28;20029;-61
2021/05/23 08:23:47;;;;;;;458.93;339.10;;;;;;;11.56;84.65;98515.88;5033000;28;20060;-61
2021/05/23 08:26:12;;;;;;;457.03;334.67;;;;;;;11.51;84.80;98515.13;5033214;28;20026;-61
2021/05/23 08:28:38;;;;;;;458.17;337.50;;;;;;;11.45;83.69;98516.16;5029714;28;20115;-61
2021/05/23 08:31:04;;;;;;;457.07;334.77;;;;;;;11.43;84.06;98519.59;5035106;28;20072;-61
2021/05/23 08:33:32;;;;;;;454.33;326.77;;;;;;;11.35;84.45;98512.09;5032272;28;20072;-62
2021/05/23 08:35:58;;;;;;;455.13;328.60;;;;;;;11.41;84.42;98514.50;5031691;28;20087;-62
2021/05/23 08:38:23;;;;;;;458.30;321.47;;;;;;;11.37;85.85;98517.22;5034117;28;20279;-62
2021/05/23 08:40:49;;;;;;;453.30;318.40;;;;;;;11.25;86.12;98527.72;5034409;28;20060;-62
2021/05/23 08:43:15;;;;;;;455.87;318.13;;;;;;;11.18;87.32;98528.78;5013162;28;20026;-62
2021/05/23 08:45:42;;;;;;;453.13;317.63;;;;;;;11.14;87.81;98533.13;5033854;28;20040;-62
2021/05/23 08:48:07;;;;;;;455.57;315.30;;;;;;;11.09;87.77;98537.50;5030622;28;20347;-62
2021/05/23 08:50:33;;;;;;;449.13;301.93;;;;;;;11.09;89.14;98546.94;5032221;28;20339;-62
2021/05/23 08:53:01;;;;;;;450.67;300.83;;;;;;;11.08;89.67;98553.78;5033821;28;20041;-62
2021/05/23 08:55:28;;;;;;;447.83;302.07;;;;;;;11.15;89.51;98550.22;5031727;28;20361;-62
2021/05/23 08:57:55;;;;;;;452.80;307.70;;;;;;;11.19;89.43;98562.09;5029009;28;20677;-62
2021/05/23 09:00:22;;;;;;;452.53;300.50;;;;;;;11.07;88.13;98571.78;5032382;28;20629;-62
2021/05/23 09:02:58;;;;;;;450.20;295.73;;;;;;;11.04;88.48;98579.53;5031645;28;20271;-64
2021/05/23 09:05:29;;;;;;;448.17;302.10;;;;;;;11.01;87.57;98585.59;5031006;28;20315;-62
2021/05/23 09:07:54;;;;;;;448.73;300.03;;;;;;;11.02;87.43;98581.31;5031769;28;20280;-62
2021/05/23 09:10:28;;;;;;;451.00;295.73;;;;;;;11.07;88.74;98595.72;5031782;28;20268;-62
2021/05/23 09:12:54;;;;;;;455.87;305.23;;;;;;;10.89;87.49;98589.25;5029913;28;20153;-62
2021/05/23 09:15:20;;;;;;;449.40;293.80;;;;;;;10.90;87.30;98597.81;5032005;28;20292;-62
2021/05/23 09:17:45;;;;;;;450.73;295.33;;;;;;;11.05;88.19;98599.19;5032268;28;20456;-62
2021/05/23 09:20:18;;;;;;;449.10;295.83;;;;;;;11.10;88.42;98592.25;5029384;28;20273;-61
2021/05/23 09:22:50;;;;;;;447.77;292.67;;;;;;;10.90;88.71;98603.78;5029928;28;20025;-62
2021/05/23 09:25:27;;;;;;;450.33;296.33;;;;;;;11.04;88.36;98607.75;5029913;28;20295;-62
2021/05/23 09:27:53;;;;;;;453.13;297.57;;;;;;;10.95;87.38;98609.63;5029401;28;20283;-62
2021/05/23 09:30:24;;;;;;;447.63;290.10;;;;;;;10.92;87.15;98609.72;5029815;28;20642;-62
2021/05/23 09:32:52;;;;;;;448.93;294.67;;;;;;;10.92;86.82;98614.00;5036407;28;20029;-62
2021/05/23 09:35:18;;;;;;;444.80;288.83;;;;;;;10.90;88.04;98621.75;5033775;28;20283;-62
2021/05/23 09:37:44;;;;;;;448.90;298.50;;;;;;;10.79;88.18;98626.22;5038237;28;20264;-62
2021/05/23 09:40:20;;;;;;;448.40;302.37;;;;;;;10.70;86.32;98634.09;5032508;28;20267;-62
2021/05/23 09:42:51;;;;;;;446.90;290.93;;;;;;;10.63;86.12;98636.81;5029871;28;20346;-61
2021/05/23 09:45:18;;;;;;;443.57;285.80;;;;;;;10.47;85.47;98639.66;5036292;28;20286;-62
2021/05/23 09:47:57;;;;;;;443.60;276.73;;;;;;;10.46;84.04;98658.47;5036358;28;20292;-61
2021/05/23 09:50:40;;;;;;;442.40;274.17;;;;;;;10.45;85.05;98664.47;5038853;28;20268;-62
2021/05/23 09:53:20;;;;;;;444.43;273.70;;;;;;;10.45;85.48;98663.63;5039975;28;20280;-62
2021/05/23 09:56:11;;;;;;;444.80;273.50;;;;;;;10.46;85.92;98665.31;5035497;28;20336;-61
2021/05/23 09:58:42;;;;;;;444.47;269.67;;;;;;;10.47;86.38;98667.03;5035048;28;20273;-61
2021/05/23 10:01:33;;;;;;;443.20;271.77;;;;;;;10.46;87.37;98676.41;5037111;28;20264;-62
2021/05/23 10:04:01;;;;;;;442.87;284.20;;;;;;;10.56;86.89;98682.25;5040349;28;20315;-61
2021/05/23 10:06:28;;;;;;;442.00;271.87;;;;;;;10.55;85.75;98683.09;5028892;28;20292;-61
2021/05/23 10:08:55;;;;;;;444.43;274.60;;;;;;;10.59;85.88;98686.44;5035058;28;20285;-61
2021/05/23 10:11:21;;;;;;;444.17;270.57;;;;;;;10.61;86.71;98690.66;5034447;28;20279;-60
2021/05/23 10:13:47;;;;;;;446.07;283.07;;;;;;;10.59;87.90;98678.75;5034847;28;20315;-62
2021/05/23 10:16:12;;;;;;;445.57;282.13;;;;;;;10.62;87.33;98691.50;5035534;28;20030;-63
2021/05/23 10:18:38;;;;;;;449.77;284.87;;;;;;;10.66;87.51;98694.00;5030948;28;20037;-62
2021/05/23 10:21:04;;;;;;;449.27;282.53;;;;;;;10.77;88.91;98692.09;5033124;28;20029;-62
2021/05/23 10:23:33;;;;;;;446.90;281.10;;;;;;;10.92;89.31;98684.09;5029118;28;20676;-62
2021/05/23 10:26:02;;;;;;;447.07;283.07;;;;;;;11.00;88.90;98702.75;5031497;28;20303;-63
2021/05/23 10:28:29;;;;;;;447.13;283.63;;;;;;;11.03;87.77;98696.72;5031164;28;20272;-62
2021/05/23 10:30:56;;;;;;;447.13;285.77;;;;;;;11.02;86.78;98695.03;5030557;28;20780;-62
2021/05/23 10:33:22;;;;;;;446.63;287.37;;;;;;;10.95;86.10;98704.53;5029107;28;20645;-63
2021/05/23 10:35:51;;;;;;;450.93;293.50;;;;;;;10.94;85.96;98705.44;5029703;28;20520;-63
2021/05/23 10:38:20;;;;;;;447.03;288.50;;;;;;;10.95;86.67;98712.25;5029729;28;20575;-62
2021/05/23 10:40:58;;;;;;;445.97;285.27;;;;;;;11.14;86.47;98715.31;5031474;28;21012;-60
2021/05/23 10:43:32;;;;;;;444.60;282.73;;;;;;;11.09;86.58;98718.81;5030712;28;20351;-62
2021/05/23 10:46:15;;;;;;;446.37;286.07;;;;;;;11.16;85.67;98728.94;5028475;28;20712;-62
2021/05/23 10:49:00;;;;;;;452.40;302.57;;;;;;;11.18;85.40;98731.47;5029536;28;20285;-61
2021/05/23 10:51:27;;;;;;;449.10;290.60;;;;;;;11.18;85.61;98747.72;5026511;28;20543;-63
2021/05/23 10:53:53;;;;;;;454.27;300.97;;;;;;;11.25;87.66;98751.84;5017262;28;20381;-62
2021/05/23 10:56:23;;;;;;;457.70;307.73;;;;;;;11.26;86.42;98761.25;5029285;28;20295;-63
2021/05/23 10:59:02;;;;;;;456.93;315.00;;;;;;;11.29;88.04;98768.03;5027587;28;20318;-60
2021/05/23 11:01:45;;;;;;;451.50;300.53;;;;;;;11.24;85.85;98775.84;5031781;28;20299;-61
2021/05/23 11:04:16;;;;;;;450.90;309.50;;;;;;;11.13;84.67;98780.31;5030043;28;20276;-61